Time;durP1;ratioP1;P1;durP2;ratioP2;P2;SDS_P1;SDS_P2;PMS_P1;PMS_P2;Temp;Humidity;BMP_temperature;BMP_pressure;BME280_temperature;BME280_humidity;BME280_pressure;Samples;Min_cycle;Max_cycle;Signal;HPM_P1;HPM_P2
2022/11/11 00:01:36;;;;;;;9.23;4.05;;;10.90;99.90;;;;;;5069485;28;20055;-71
2022/11/11 00:04:22;;;;;;;9.95;4.57;;;10.90;99.90;;;;;;5070012;28;20533;-73
2022/11/11 00:07:09;;;;;;;8.70;4.03;;;11.00;99.90;;;;;;5066411;28;20040;-73
2022/11/11 00:09:54;;;;;;;7.05;3.40;;;11.00;99.90;;;;;;5067748;28;20055;-73
2022/11/11 00:12:41;;;;;;;11.55;4.25;;;11.00;99.90;;;;;;5055629;28;20059;-72
2022/11/11 00:15:27;;;;;;;8.85;4.30;;;11.00;99.90;;;;;;5068221;28;20040;-73
2022/11/11 00:27:33;;;;;;;9.35;5.25;;;11.20;99.90;;;;;;5064798;28;20045;-80
2022/11/11 00:30:20;;;;;;;10.77;6.00;;;11.20;99.90;;;;;;5063590;28;20131;-80
2022/11/11 00:33:06;;;;;;;17.67;6.40;;;11.20;99.90;;;;;;5063775;28;20048;-78
2022/11/11 00:35:54;;;;;;;12.00;7.07;;;11.20;99.90;;;;;;5064242;28;20170;-79
2022/11/11 00:38:48;;;;;;;17.38;7.65;;;11.30;99.90;;;;;;5054735;28;20106;-78
2022/11/11 00:41:35;;;;;;;16.65;7.95;;;11.30;99.90;;;;;;5063655;28;20052;-79
2022/11/11 00:44:21;;;;;;;22.50;8.73;;;11.30;99.90;;;;;;5077020;28;20198;-79
2022/11/11 00:53:21;;;;;;;16.98;8.82;;;11.30;99.90;;;;;;5050295;28;20037;-78
2022/11/11 00:56:07;;;;;;;20.90;8.95;;;11.20;99.90;;;;;;5066796;28;20139;-79
2022/11/11 00:58:54;;;;;;;13.52;8.25;;;11.20;99.90;;;;;;5066255;28;20529;-79
2022/11/11 01:01:40;;;;;;;16.17;8.75;;;11.20;99.90;;;;;;5069600;28;20044;-78
2022/11/11 01:04:26;;;;;;;11.75;8.68;;;11.20;99.90;;;;;;5069376;28;20182;-78
2022/11/11 01:07:12;;;;;;;13.85;9.52;;;11.20;99.90;;;;;;5063689;28;20083;-78
2022/11/11 01:09:58;;;;;;;18.35;9.38;;;11.20;99.90;;;;;;5050141;28;20052;-79
2022/11/11 01:12:44;;;;;;;15.02;8.93;;;11.10;99.90;;;;;;5065757;28;20553;-78
2022/11/11 01:15:34;;;;;;;13.88;8.52;;;11.10;99.90;;;;;;5054459;28;20049;-79
2022/11/11 01:18:23;;;;;;;17.05;7.78;;;11.10;99.90;;;;;;5058122;28;20053;-79
2022/11/11 01:21:13;;;;;;;18.05;7.82;;;11.10;99.90;;;;;;5068960;28;20032;-79
2022/11/11 01:23:59;;;;;;;17.55;8.93;;;11.10;99.90;;;;;;5072162;28;20049;-79
2022/11/11 01:26:45;;;;;;;15.05;8.02;;;11.10;99.90;;;;;;5060805;28;20075;-80
2022/11/11 01:29:31;;;;;;;17.85;8.65;;;11.10;99.90;;;;;;5067605;28;20095;-78
2022/11/11 01:32:18;;;;;;;21.10;9.20;;;11.10;99.90;;;;;;5067864;28;20072;-80
2022/11/11 01:35:06;;;;;;;14.18;8.07;;;11.10;99.90;;;;;;5072015;28;20098;-79
2022/11/11 01:37:52;;;;;;;14.77;8.43;;;11.10;99.90;;;;;;5070703;28;20413;-78
2022/11/11 01:40:42;;;;;;;15.70;7.45;;;11.00;99.90;;;;;;5068795;28;20055;-78
2022/11/11 01:43:28;;;;;;;20.15;8.48;;;11.00;99.90;;;;;;5058357;28;20048;-80
2022/11/11 01:46:24;;;;;;;13.68;8.05;;;11.00;99.90;;;;;;5066872;28;20619;-79
2022/11/11 01:49:25;;;;;;;13.43;7.28;;;11.00;99.90;;;;;;5059705;28;20423;-79
2022/11/11 01:52:18;;;;;;;12.80;7.97;;;11.00;99.90;;;;;;5061593;28;20052;-80
2022/11/11 01:55:09;;;;;;;13.45;7.25;;;10.90;99.90;;;;;;5073021;28;20074;-79
2022/11/11 01:57:59;;;;;;;13.43;7.30;;;10.90;99.90;;;;;;5070492;28;20157;-79
2022/11/11 02:00:46;;;;;;;10.50;6.70;;;10.90;99.90;;;;;;5076741;28;20393;-79
2022/11/11 02:03:37;;;;;;;15.13;7.57;;;10.90;99.90;;;;;;5067163;28;20405;-79
2022/11/11 02:06:23;;;;;;;15.15;7.70;;;10.90;99.90;;;;;;5056288;28;20066;-80
2022/11/11 02:09:09;;;;;;;14.85;8.02;;;10.90;99.90;;;;;;5068222;28;20048;-79
2022/11/11 02:15:02;;;;;;;12.07;7.60;;;10.90;99.90;;;;;;5050709;28;20044;-80
2022/11/11 02:17:49;;;;;;;13.82;8.60;;;10.80;99.90;;;;;;5059844;28;20049;-80
2022/11/11 02:20:39;;;;;;;11.88;7.40;;;10.80;99.90;;;;;;5060704;28;20052;-80
2022/11/11 02:23:33;;;;;;;17.23;8.65;;;10.80;99.90;;;;;;5051520;28;20190;-79
2022/11/11 02:26:22;;;;;;;16.98;8.23;;;10.90;99.90;;;;;;5067890;28;20044;-80
2022/11/11 02:29:13;;;;;;;16.88;8.43;;;10.90;99.90;;;;;;5082354;28;20048;-80
2022/11/11 02:31:59;;;;;;;17.98;9.63;;;10.90;99.90;;;;;;5070779;28;20055;-81
2022/11/11 02:34:45;;;;;;;14.80;8.80;;;10.90;99.90;;;;;;5070355;28;20059;-79
2022/11/11 02:37:31;;;;;;;18.10;8.10;;;10.90;99.90;;;;;;5069165;28;20071;-79
2022/11/11 02:40:21;;;;;;;15.43;7.63;;;10.90;99.90;;;;;;5070497;28;20070;-80
2022/11/11 02:43:08;;;;;;;14.05;7.65;;;10.90;99.90;;;;;;5070663;28;20044;-80
2022/11/11 02:45:54;;;;;;;11.52;7.72;;;10.90;99.90;;;;;;5069043;28;20051;-79
2022/11/11 02:48:40;;;;;;;14.10;7.65;;;10.90;99.90;;;;;;5070461;28;20054;-78
2022/11/11 02:51:26;;;;;;;15.93;7.70;;;11.00;99.90;;;;;;5054849;28;20119;-79
2022/11/11 02:54:11;;;;;;;12.15;7.63;;;10.90;99.90;;;;;;5067991;28;20127;-77
2022/11/11 02:57:09;;;;;;;10.85;6.78;;;10.90;99.90;;;;;;5059466;28;20139;-81
2022/11/11 02:59:59;;;;;;;9.13;6.93;;;10.90;99.90;;;;;;5069873;28;20126;-79
2022/11/11 03:02:45;;;;;;;13.00;7.10;;;11.00;99.90;;;;;;5077783;28;20047;-79
2022/11/11 03:05:30;;;;;;;10.85;7.30;;;10.90;99.90;;;;;;5064046;28;20044;-76
2022/11/11 03:08:17;;;;;;;15.73;7.15;;;11.00;99.90;;;;;;5070136;28;20099;-80
2022/11/11 03:11:03;;;;;;;11.70;7.28;;;11.00;99.90;;;;;;5064744;28;20372;-80
2022/11/11 03:13:49;;;;;;;19.73;8.07;;;11.00;99.90;;;;;;5061205;28;20442;-80
2022/11/11 03:19:40;;;;;;;13.45;7.68;;;11.00;99.90;;;;;;5059519;28;20132;-80
2022/11/11 03:22:25;;;;;;;18.42;7.63;;;11.00;99.90;;;;;;5065477;28;20048;-79
2022/11/11 03:28:17;;;;;;;15.80;7.45;;;11.10;99.90;;;;;;5066044;28;20107;-80
2022/11/11 03:31:06;;;;;;;18.70;8.10;;;11.10;99.90;;;;;;5067578;28;20045;-81
2022/11/11 03:33:53;;;;;;;15.65;8.82;;;11.10;99.90;;;;;;5068684;28;20053;-79
2022/11/11 03:39:39;;;;;;;14.73;8.23;;;11.10;99.90;;;;;;5069955;28;20053;-80
2022/11/11 03:42:24;;;;;;;18.63;8.15;;;11.10;99.90;;;;;;5067506;28;20064;-80
2022/11/11 03:45:11;;;;;;;16.45;9.40;;;11.10;99.90;;;;;;5069312;28;20052;-80
2022/11/11 03:47:57;;;;;;;13.43;8.13;;;11.10;99.90;;;;;;5079974;28;20040;-79
2022/11/11 03:50:47;;;;;;;15.02;8.10;;;11.10;99.90;;;;;;5069387;28;20386;-78
2022/11/11 03:53:33;;;;;;;17.20;8.70;;;11.10;99.90;;;;;;5056656;28;20071;-79
2022/11/11 03:56:19;;;;;;;16.63;9.05;;;11.00;99.90;;;;;;5064597;28;20130;-79
2022/11/11 03:59:06;;;;;;;19.90;7.93;;;11.00;99.90;;;;;;5053986;28;20385;-80
2022/11/11 04:11:24;;;;;;;15.27;8.02;;;11.00;99.90;;;;;;5059628;28;20037;-73
2022/11/11 04:17:18;;;;;;;16.10;8.77;;;11.00;99.90;;;;;;5066638;28;20920;-76
2022/11/11 04:23:13;;;;;;;15.15;7.97;;;10.90;99.90;;;;;;5069118;28;20559;-80
2022/11/11 04:26:00;;;;;;;13.32;7.68;;;10.90;99.90;;;;;;5069995;28;20052;-81
2022/11/11 04:34:51;;;;;;;15.43;8.88;;;10.90;99.90;;;;;;5049740;28;20421;-78
2022/11/11 04:37:45;;;;;;;15.45;8.13;;;10.90;99.90;;;;;;5063426;28;20528;-77
2022/11/11 04:45:26;;;;;;;20.00;10.15;;;10.90;99.90;;;;;;5069409;28;20464;-73
2022/11/11 04:46:42;;;;;;;20.65;9.82;;;10.90;99.90;;;;;;5066095;28;20110;-72
2022/11/11 04:49:30;;;;;;;20.13;9.60;;;10.90;99.90;;;;;;5066596;28;20021;-71
2022/11/11 04:52:28;;;;;;;14.40;8.05;;;10.90;99.90;;;;;;5067141;28;20182;-72
2022/11/11 04:58:23;;;;;;;17.83;8.85;;;10.90;99.90;;;;;;5063111;28;20044;-73
2022/11/11 05:01:10;;;;;;;13.70;7.50;;;10.80;99.90;;;;;;5066312;28;20147;-80
2022/11/11 05:03:55;;;;;;;22.00;9.43;;;10.70;99.90;;;;;;5060465;28;20041;-78
2022/11/11 05:09:45;;;;;;;11.27;7.55;;;10.50;99.90;;;;;;5049263;28;20049;-78
2022/11/11 05:12:30;;;;;;;13.35;7.70;;;10.50;99.90;;;;;;5063081;28;20044;-72
2022/11/11 05:21:28;;;;;;;;;;;10.50;99.90;;;;;;5063670;28;20048;-72
2022/11/11 05:27:19;;;;;;;16.60;7.10;;;10.60;99.90;;;;;;5064913;28;20049;-74
2022/11/11 05:30:08;;;;;;;18.02;7.25;;;10.60;99.90;;;;;;5065647;28;20048;-71
2022/11/11 05:32:56;;;;;;;10.82;6.20;;;10.70;99.90;;;;;;5063126;28;20135;-72
2022/11/11 05:35:42;;;;;;;10.55;5.50;;;10.70;99.90;;;;;;5066298;28;20109;-80
2022/11/11 05:38:31;;;;;;;18.73;6.55;;;10.70;99.90;;;;;;5065821;28;20051;-80
2022/11/11 05:41:17;;;;;;;16.30;6.32;;;10.70;99.90;;;;;;5066456;28;20044;-79
2022/11/11 05:44:04;;;;;;;9.10;5.82;;;10.70;99.90;;;;;;5063721;28;20043;-80
2022/11/11 05:46:53;;;;;;;11.82;5.72;;;10.70;99.90;;;;;;5066393;28;20048;-73
2022/11/11 05:49:40;;;;;;;13.30;6.05;;;10.70;99.90;;;;;;5065481;28;20120;-79
2022/11/11 05:52:26;;;;;;;29.50;7.32;;;10.70;99.90;;;;;;5063282;28;20044;-81
2022/11/11 05:55:12;;;;;;;22.75;7.13;;;10.80;99.90;;;;;;5064142;28;20040;-79
2022/11/11 05:57:58;;;;;;;14.32;7.70;;;10.80;99.90;;;;;;5070813;28;20071;-80
2022/11/11 06:00:44;;;;;;;15.73;7.50;;;10.80;99.90;;;;;;5063067;28;20103;-80
2022/11/11 06:03:30;;;;;;;18.65;6.65;;;10.90;99.90;;;;;;5068332;28;20040;-80
2022/11/11 06:06:18;;;;;;;13.70;6.22;;;10.90;99.90;;;;;;5072034;28;20181;-79
2022/11/11 06:09:05;;;;;;;19.42;7.95;;;10.80;99.90;;;;;;5069054;28;20060;-77
2022/11/11 06:11:51;;;;;;;30.27;9.75;;;10.80;99.90;;;;;;5070650;28;20037;-71
2022/11/11 06:14:37;;;;;;;18.75;6.35;;;10.80;99.90;;;;;;5071920;28;20071;-73
2022/11/11 06:17:23;;;;;;;14.00;6.70;;;10.80;99.90;;;;;;5066611;28;20405;-72
2022/11/11 06:20:10;;;;;;;14.02;5.93;;;10.80;99.90;;;;;;5068556;28;20056;-72
2022/11/11 06:22:58;;;;;;;11.80;5.70;;;10.80;99.90;;;;;;5067731;28;20135;-74
2022/11/11 06:28:49;;;;;;;;;;;10.80;99.90;;;;;;5072986;28;20127;-74
2022/11/11 06:31:35;;;;;;;9.25;3.97;;;10.80;99.90;;;;;;5080528;28;20419;-74
2022/11/11 06:34:21;;;;;;;7.45;3.95;;;10.70;99.90;;;;;;5081123;28;20067;-74
2022/11/11 06:37:07;;;;;;;11.38;4.20;;;10.70;99.90;;;;;;5076347;28;20059;-78
2022/11/11 06:39:55;;;;;;;7.50;4.25;;;10.70;99.90;;;;;;5080647;28;20049;-80
2022/11/11 06:42:41;;;;;;;5.78;2.88;;;10.60;99.90;;;;;;5075682;28;20105;-78
2022/11/11 06:45:30;;;;;;;7.97;3.95;;;10.60;99.90;;;;;;5073210;28;20143;-77
2022/11/11 06:48:17;;;;;;;10.30;3.83;;;10.60;99.90;;;;;;5074880;28;20592;-74
2022/11/11 06:51:06;;;;;;;9.70;4.47;;;10.50;99.90;;;;;;5072667;28;20051;-72
2022/11/11 06:53:52;;;;;;;8.40;2.92;;;10.40;99.90;;;;;;5075006;28;20044;-72
2022/11/11 06:56:40;;;;;;;9.30;3.22;;;10.40;99.90;;;;;;5071393;28;20044;-73
2022/11/11 06:59:26;;;;;;;9.77;4.35;;;10.30;99.90;;;;;;5074464;28;20454;-71
2022/11/11 07:02:13;;;;;;;8.25;3.30;;;10.30;99.90;;;;;;5070770;28;20504;-74
2022/11/11 07:05:00;;;;;;;12.55;3.53;;;10.30;99.90;;;;;;5062931;28;20568;-73
2022/11/11 07:07:46;;;;;;;7.03;2.40;;;10.20;99.90;;;;;;5076426;28;20606;-72
2022/11/11 07:10:34;;;;;;;9.77;2.83;;;10.20;99.90;;;;;;5080098;28;20518;-73
2022/11/11 07:13:22;;;;;;;5.75;2.13;;;10.20;99.90;;;;;;5078684;28;20048;-73
2022/11/11 07:16:10;;;;;;;8.93;2.45;;;10.20;99.90;;;;;;5079862;28;20075;-78
2022/11/11 07:18:56;;;;;;;6.28;2.70;;;10.20;99.90;;;;;;5085631;28;20052;-79
2022/11/11 07:21:42;;;;;;;7.70;3.42;;;10.20;99.90;;;;;;5086101;28;20487;-78
2022/11/11 07:24:29;;;;;;;7.78;2.25;;;10.20;99.90;;;;;;5077154;28;20048;-77
2022/11/11 07:27:15;;;;;;;7.35;2.38;;;10.20;99.90;;;;;;5085665;28;20530;-76
2022/11/11 07:30:03;;;;;;;8.98;2.28;;;10.20;99.90;;;;;;5086901;28;20047;-77
2022/11/11 07:32:52;;;;;;;7.78;2.13;;;10.20;99.90;;;;;;5081546;28;20197;-79
2022/11/11 07:35:38;;;;;;;7.22;1.80;;;10.20;99.90;;;;;;5083512;28;20032;-78
2022/11/11 07:38:24;;;;;;;9.88;2.00;;;10.20;99.90;;;;;;5083883;28;20471;-76
2022/11/11 07:41:10;;;;;;;8.13;2.28;;;10.20;99.90;;;;;;5079793;28;20055;-75
2022/11/11 07:43:56;;;;;;;8.95;2.38;;;10.20;99.90;;;;;;5082931;28;20050;-77
2022/11/11 07:46:44;;;;;;;9.07;1.90;;;10.20;99.90;;;;;;5071162;28;20052;-77
2022/11/11 07:49:30;;;;;;;14.48;3.05;;;10.20;99.90;;;;;;5081048;28;20047;-78
2022/11/11 07:52:16;;;;;;;10.45;2.67;;;10.20;99.90;;;;;;5077210;28;20051;-79
2022/11/11 07:55:02;;;;;;;7.20;2.63;;;10.20;99.90;;;;;;5074486;28;20049;-79
2022/11/11 07:57:52;;;;;;;9.20;2.17;;;10.30;99.90;;;;;;5076499;28;20063;-72
2022/11/11 08:00:38;;;;;;;4.35;1.80;;;10.40;99.90;;;;;;5079257;28;20043;-72
2022/11/11 08:03:25;;;;;;;4.85;2.58;;;10.40;99.90;;;;;;5076208;28;20051;-73
2022/11/11 08:06:14;;;;;;;14.73;2.63;;;10.40;99.90;;;;;;5075977;28;20413;-72
2022/11/11 08:09:00;;;;;;;10.27;2.38;;;10.30;99.90;;;;;;5082244;28;20070;-71
2022/11/11 08:14:50;;;;;;;11.10;2.45;;;10.30;99.90;;;;;;5085393;28;20121;-73
2022/11/11 08:17:39;;;;;;;4.82;2.33;;;10.30;99.90;;;;;;5085214;28;20526;-72
2022/11/11 08:20:26;;;;;;;6.95;2.20;;;10.30;99.90;;;;;;5079177;28;20044;-72
2022/11/11 08:23:13;;;;;;;8.75;2.50;;;10.30;99.90;;;;;;5086043;28;20524;-72
2022/11/11 08:26:00;;;;;;;7.57;2.72;;;10.30;99.90;;;;;;5087154;28;20044;-73
2022/11/11 08:28:46;;;;;;;8.90;2.38;;;10.30;99.90;;;;;;5076548;28;20044;-71
2022/11/11 08:31:34;;;;;;;11.75;3.55;;;10.20;99.90;;;;;;5083735;28;20037;-73
2022/11/11 08:34:20;;;;;;;13.50;2.95;;;10.20;99.90;;;;;;5086755;28;20048;-73
2022/11/11 08:37:07;;;;;;;7.90;3.20;;;10.20;99.90;;;;;;5081602;28;20559;-74
2022/11/11 08:39:53;;;;;;;11.73;2.70;;;10.20;99.90;;;;;;5082347;28;20048;-74
2022/11/11 08:42:41;;;;;;;6.93;2.50;;;10.20;99.90;;;;;;5082680;28;20033;-73
2022/11/11 08:45:27;;;;;;;10.45;2.95;;;10.30;99.90;;;;;;5084682;28;20048;-72
2022/11/11 08:48:14;;;;;;;9.05;2.85;;;10.20;99.90;;;;;;5073463;28;20045;-72
2022/11/11 08:51:00;;;;;;;10.30;2.80;;;10.20;99.90;;;;;;5073631;28;20056;-72
2022/11/11 08:53:47;;;;;;;14.32;2.72;;;10.20;99.90;;;;;;5079274;28;20509;-72
2022/11/11 08:56:34;;;;;;;6.47;2.38;;;10.20;99.90;;;;;;5079301;28;20052;-73
2022/11/11 08:59:19;;;;;;;12.23;3.10;;;10.20;99.90;;;;;;5079741;28;20040;-72
2022/11/11 09:02:06;;;;;;;10.50;3.55;;;10.20;99.90;;;;;;5083210;28;20411;-71
2022/11/11 09:04:52;;;;;;;11.43;3.08;;;10.10;99.90;;;;;;5083558;28;20131;-71
2022/11/11 09:07:38;;;;;;;10.27;2.00;;;10.20;99.90;;;;;;5076092;28;20074;-72
2022/11/11 09:10:25;;;;;;;5.90;2.35;;;10.20;99.90;;;;;;5079296;28;20531;-71
2022/11/11 09:13:11;;;;;;;8.77;2.22;;;10.10;99.90;;;;;;5086002;28;20051;-71
2022/11/11 09:15:58;;;;;;;6.20;2.45;;;10.00;99.90;;;;;;5079674;28;20116;-72
2022/11/11 09:18:44;;;;;;;8.35;2.42;;;10.10;99.90;;;;;;5083045;28;20055;-72
2022/11/11 09:21:30;;;;;;;5.70;2.38;;;10.00;99.90;;;;;;5082671;28;20044;-72
2022/11/11 09:24:17;;;;;;;13.98;2.38;;;9.90;99.90;;;;;;5081413;28;20044;-73
2022/11/11 09:27:04;;;;;;;7.47;2.17;;;9.90;99.90;;;;;;5083130;28;20048;-71
2022/11/11 09:29:50;;;;;;;7.30;2.53;;;9.90;99.90;;;;;;5084365;28;20098;-70
2022/11/11 09:32:38;;;;;;;10.88;2.33;;;9.90;99.90;;;;;;5080985;28;20078;-71
2022/11/11 09:35:24;;;;;;;6.55;1.95;;;10.00;99.90;;;;;;5079199;28;20138;-73
2022/11/11 09:38:10;;;;;;;7.90;2.50;;;9.90;99.90;;;;;;5079684;28;20131;-73
2022/11/11 09:41:15;;;;;;;6.90;2.33;;;9.90;99.90;;;;;;5082052;28;20565;-71
2022/11/11 09:44:04;;;;;;;10.82;2.33;;;9.80;99.90;;;;;;5081185;28;20047;-72
2022/11/11 09:46:58;;;;;;;5.07;2.47;;;9.70;99.90;;;;;;5083499;28;20051;-71
2022/11/11 09:49:59;;;;;;;7.20;2.33;;;9.60;99.90;;;;;;5085579;28;20081;-71
2022/11/11 09:52:51;;;;;;;8.73;2.40;;;9.50;99.90;;;;;;5078389;28;20044;-78
2022/11/11 09:55:41;;;;;;;6.38;2.20;;;9.50;99.90;;;;;;5085176;28;20626;-76
2022/11/11 09:58:35;;;;;;;6.65;2.55;;;9.50;99.90;;;;;;5089322;28;20052;-78
2022/11/11 10:01:26;;;;;;;;;;;9.50;99.90;;;;;;5076957;28;20039;-77
2022/11/11 10:04:28;;;;;;;6.97;2.50;;;9.50;99.90;;;;;;5081125;28;19923;-75
2022/11/11 10:07:28;;;;;;;5.95;2.70;;;9.60;99.90;;;;;;5088448;28;20036;-75
2022/11/11 10:10:32;;;;;;;8.30;2.88;;;9.60;99.90;;;;;;5083083;28;20047;-76
2022/11/11 10:13:23;;;;;;;6.88;2.17;;;9.60;99.90;;;;;;5082494;28;20552;-75
2022/11/11 10:16:23;;;;;;;3.13;1.90;;;9.60;99.90;;;;;;5088994;28;20048;-76
2022/11/11 10:19:30;;;;;;;7.80;2.30;;;9.70;99.90;;;;;;5078249;28;20054;-75
2022/11/11 10:22:22;;;;;;;6.40;3.33;;;9.80;99.90;;;;;;5083764;28;20757;-71
2022/11/11 10:25:22;;;;;;;6.43;2.78;;;9.80;99.90;;;;;;5084049;28;20606;-70
2022/11/11 10:28:16;;;;;;;5.40;2.30;;;10.00;99.90;;;;;;5083605;28;20468;-70
2022/11/11 10:31:03;;;;;;;5.30;2.10;;;10.00;99.90;;;;;;5082302;28;20377;-71
2022/11/11 10:33:58;;;;;;;4.28;1.95;;;10.00;99.90;;;;;;5082032;28;20048;-72
2022/11/11 10:36:49;;;;;;;5.90;2.20;;;10.10;99.90;;;;;;5084194;28;20519;-72
2022/11/11 10:39:55;;;;;;;5.72;2.42;;;10.10;99.90;;;;;;5079996;28;20521;-73
2022/11/11 10:42:41;;;;;;;4.50;2.50;;;10.20;99.90;;;;;;5087236;28;20079;-70
2022/11/11 10:45:40;;;;;;;6.95;3.20;;;10.20;99.90;;;;;;5084596;28;20048;-71
2022/11/11 10:48:38;;;;;;;3.75;2.60;;;10.20;99.90;;;;;;5083445;28;20148;-74
2022/11/11 10:51:29;;;;;;;4.60;2.60;;;10.20;99.90;;;;;;5086955;28;20044;-73
2022/11/11 10:54:19;;;;;;;4.03;2.53;;;10.30;99.90;;;;;;5086275;28;20054;-71
2022/11/11 10:57:14;;;;;;;5.93;2.53;;;10.40;99.90;;;;;;5082024;28;20136;-72
2022/11/11 11:00:06;;;;;;;7.28;2.75;;;10.40;99.90;;;;;;5081527;28;20058;-71
2022/11/11 11:02:59;;;;;;;5.80;2.30;;;10.50;99.90;;;;;;5083011;28;20044;-74
2022/11/11 11:05:52;;;;;;;5.70;2.67;;;10.40;99.90;;;;;;5082630;28;20048;-73
2022/11/11 11:08:46;;;;;;;4.43;2.33;;;10.40;99.90;;;;;;5084821;28;20044;-73
2022/11/11 11:11:39;;;;;;;3.83;1.70;;;10.40;99.90;;;;;;5088645;28;20066;-72
2022/11/11 11:14:31;;;;;;;6.18;2.25;;;10.50;99.90;;;;;;5085414;28;20038;-74
2022/11/11 11:17:23;;;;;;;7.95;2.58;;;10.50;99.90;;;;;;5086670;28;20097;-75
2022/11/11 11:20:13;;;;;;;5.93;2.17;;;10.50;99.90;;;;;;5084120;28;20543;-71
2022/11/11 11:23:00;;;;;;;4.38;2.42;;;10.50;99.90;;;;;;5085169;28;20082;-72
2022/11/11 11:25:54;;;;;;;5.03;2.70;;;10.50;99.90;;;;;;5079044;28;20097;-74
2022/11/11 11:28:55;;;;;;;3.67;2.42;;;10.50;99.90;;;;;;5082153;28;20169;-72
2022/11/11 11:31:43;;;;;;;3.90;2.13;;;10.60;99.90;;;;;;5083375;28;20127;-71
2022/11/11 11:34:46;;;;;;;2.92;2.13;;;10.60;99.90;;;;;;5081052;28;20609;-72
2022/11/11 11:37:32;;;;;;;5.43;2.75;;;10.60;99.90;;;;;;5085573;28;20044;-77
2022/11/11 11:40:17;;;;;;;4.95;2.30;;;10.60;99.90;;;;;;5084876;28;20133;-78
2022/11/11 11:43:26;;;;;;;4.43;2.80;;;10.70;99.90;;;;;;5084190;28;20051;-77
2022/11/11 11:46:21;;;;;;;8.63;3.13;;;10.60;99.90;;;;;;5086695;28;20051;-78
2022/11/11 11:49:27;;;;;;;5.18;3.03;;;10.50;99.90;;;;;;5083129;28;20129;-76
2022/11/11 11:52:32;;;;;;;8.30;3.13;;;10.30;99.90;;;;;;5083940;28;20051;-79
2022/11/11 11:55:21;;;;;;;8.07;3.15;;;10.20;99.90;;;;;;5086297;28;20110;-77
2022/11/11 11:58:27;;;;;;;4.38;2.53;;;10.10;99.90;;;;;;5077747;28;20743;-76
2022/11/11 12:01:19;;;;;;;3.80;2.40;;;10.20;99.90;;;;;;5081728;28;20132;-76
2022/11/11 12:04:47;;;;;;;3.65;2.67;;;10.20;99.90;;;;;;5083110;28;20104;-78
2022/11/11 12:08:05;;;;;;;3.60;2.33;;;10.20;99.90;;;;;;5081852;28;20129;-77
2022/11/11 12:11:03;;;;;;;3.00;2.47;;;10.10;99.90;;;;;;5080719;28;20074;-77
2022/11/11 12:14:23;;;;;;;5.22;2.90;;;10.10;99.90;;;;;;5082400;28;20143;-77
2022/11/11 12:17:23;;;;;;;4.43;2.47;;;10.10;99.90;;;;;;5081025;28;20043;-78
2022/11/11 12:20:18;;;;;;;6.43;2.75;;;10.20;99.90;;;;;;5078439;28;20124;-77
2022/11/11 12:23:36;;;;;;;3.63;2.10;;;10.20;99.90;;;;;;5084392;28;20044;-78
2022/11/11 12:26:33;;;;;;;4.68;2.40;;;10.20;99.90;;;;;;5077440;28;20047;-78
2022/11/11 12:29:44;;;;;;;5.90;2.65;;;10.20;99.90;;;;;;5072524;28;20186;-78
2022/11/11 12:36:21;;;;;;;4.22;1.52;;;10.10;99.90;;;;;;5075168;28;20509;-81
2022/11/11 12:39:26;;;;;;;6.18;2.22;;;10.10;99.90;;;;;;4999996;28;1470501;-81
2022/11/11 12:43:06;;;;;;;2.10;1.55;;;10.10;99.90;;;;;;5018711;28;20459;-78
2022/11/11 12:46:23;;;;;;;3.35;1.95;;;10.10;99.90;;;;;;5072133;28;20531;-76
2022/11/11 12:49:43;;;;;;;5.95;2.03;;;10.10;99.90;;;;;;5054835;28;20564;-83
2022/11/11 12:52:49;;;;;;;4.57;1.90;;;10.00;99.90;;;;;;5058290;28;20052;-77
2022/11/11 12:55:47;;;;;;;5.75;2.30;;;10.10;99.90;;;;;;5062250;28;20052;-72
2022/11/11 12:58:41;;;;;;;3.08;1.70;;;10.10;99.90;;;;;;5056991;28;20087;-78
2022/11/11 13:01:47;;;;;;;12.63;3.08;;;10.10;99.90;;;;;;5060976;28;20124;-77
2022/11/11 13:04:47;;;;;;;2.22;1.60;;;10.10;99.90;;;;;;5065276;28;20044;-79
2022/11/11 13:08:27;;;;;;;2.40;1.40;;;10.10;99.90;;;;;;5056985;28;20505;-78
2022/11/11 13:11:29;;;;;;;4.40;1.85;;;10.10;99.90;;;;;;5052040;28;20045;-72
2022/11/11 13:14:56;;;;;;;5.72;1.70;;;10.10;99.90;;;;;;5064264;28;20067;-79
2022/11/11 13:17:43;;;;;;;3.38;2.00;;;10.10;99.90;;;;;;5050858;28;20037;-76
2022/11/11 13:20:46;;;;;;;2.08;1.88;;;10.10;99.90;;;;;;5049526;28;20048;-77
2022/11/11 13:23:32;;;;;;;4.28;1.70;;;10.10;99.90;;;;;;5065117;28;20044;-78
2022/11/11 13:26:39;;;;;;;3.95;1.60;;;10.10;99.90;;;;;;5063083;28;20144;-78
2022/11/11 13:30:07;;;;;;;5.03;2.00;;;10.20;99.90;;;;;;5063719;28;20032;-77
2022/11/11 13:33:00;;;;;;;3.92;1.48;;;10.20;99.90;;;;;;5062028;28;20049;-73
2022/11/11 13:35:51;;;;;;;3.28;1.73;;;10.30;99.90;;;;;;5057211;28;20044;-74
2022/11/11 13:38:45;;;;;;;3.05;2.08;;;10.20;99.90;;;;;;5059435;28;20045;-72
2022/11/11 13:41:33;;;;;;;;;;;10.20;99.90;;;;;;5069286;28;20048;-73
2022/11/11 13:44:24;;;;;;;2.90;2.00;;;10.30;99.90;;;;;;5064185;28;19928;-71
2022/11/11 13:47:19;;;;;;;3.95;2.10;;;10.20;99.90;;;;;;5064453;28;20053;-72
2022/11/11 13:50:15;;;;;;;4.15;2.88;;;10.20;99.90;;;;;;5064819;28;20044;-72
2022/11/11 13:53:04;;;;;;;7.30;3.00;;;10.30;99.90;;;;;;5063262;28;20417;-73
2022/11/11 13:55:52;;;;;;;7.65;2.28;;;10.30;99.90;;;;;;5059861;28;20059;-79
2022/11/11 13:58:42;;;;;;;9.90;2.83;;;10.30;99.90;;;;;;5059472;28;20045;-78
2022/11/11 14:01:35;;;;;;;6.10;2.22;;;10.30;99.90;;;;;;5058754;28;20045;-77
2022/11/11 14:04:21;;;;;;;5.88;2.92;;;10.40;99.90;;;;;;5064674;28;20052;-75
2022/11/11 14:07:09;;;;;;;4.80;1.90;;;10.30;99.90;;;;;;5069006;28;20045;-78
2022/11/11 14:10:01;;;;;;;3.30;1.35;;;10.50;99.90;;;;;;5059547;28;20041;-78
2022/11/11 14:12:49;;;;;;;3.05;2.38;;;10.50;99.90;;;;;;5051543;28;20547;-79
2022/11/11 14:15:42;;;;;;;3.92;2.83;;;10.50;99.90;;;;;;5063042;28;20052;-78
2022/11/11 14:18:44;;;;;;;8.25;2.60;;;10.50;99.90;;;;;;5054430;28;20052;-77
2022/11/11 14:21:49;;;;;;;3.70;2.28;;;10.50;99.90;;;;;;5054934;28;20049;-75
2022/11/11 14:24:43;;;;;;;5.35;2.90;;;10.60;99.90;;;;;;5056564;28;20044;-73
2022/11/11 14:27:33;;;;;;;4.85;2.40;;;10.60;99.90;;;;;;5065209;28;20135;-74
2022/11/11 14:30:38;;;;;;;3.42;1.90;;;10.60;99.90;;;;;;5057089;28;20056;-72
2022/11/11 14:34:00;;;;;;;4.57;2.03;;;10.60;99.90;;;;;;5051767;28;20605;-77
2022/11/11 14:36:51;;;;;;;7.85;2.35;;;10.70;99.90;;;;;;5051606;28;20041;-74
2022/11/11 14:39:43;;;;;;;3.30;2.40;;;10.70;99.90;;;;;;5045733;28;20118;-70
2022/11/11 14:42:49;;;;;;;5.28;2.05;;;10.70;99.90;;;;;;5060369;28;20444;-76
2022/11/11 14:46:05;;;;;;;3.55;1.88;;;10.70;99.90;;;;;;5045318;28;20539;-78
2022/11/11 14:48:58;;;;;;;4.80;2.22;;;10.80;99.90;;;;;;5042459;28;20050;-76
2022/11/11 14:51:49;;;;;;;3.03;2.00;;;10.80;99.90;;;;;;5044047;28;20052;-76
2022/11/11 14:55:11;;;;;;;4.72;2.10;;;10.80;99.90;;;;;;5063562;28;20141;-77
2022/11/11 14:58:05;;;;;;;2.92;2.63;;;10.90;99.90;;;;;;5044423;28;20424;-72
2022/11/11 15:00:58;;;;;;;3.33;2.35;;;10.90;99.90;;;;;;5039011;28;20067;-72
2022/11/11 15:03:48;;;;;;;4.90;2.85;;;10.90;99.90;;;;;;5041094;28;20049;-73
2022/11/11 15:06:42;;;;;;;3.38;1.90;;;10.90;99.90;;;;;;5035759;28;20056;-77
2022/11/11 15:10:11;;;;;;;2.83;2.20;;;11.00;99.90;;;;;;5048158;28;20045;-74
2022/11/11 15:13:32;;;;;;;3.08;2.40;;;11.10;99.90;;;;;;5015984;28;20052;-73
2022/11/11 15:16:32;;;;;;;4.70;2.63;;;11.10;99.90;;;;;;5057976;28;20049;-73
2022/11/11 15:19:36;;;;;;;2.03;1.83;;;11.10;99.90;;;;;;5038981;28;20395;-76
2022/11/11 15:22:42;;;;;;;2.28;2.08;;;11.10;99.90;;;;;;5042773;28;20120;-78
2022/11/11 15:25:48;;;;;;;3.40;1.67;;;11.20;99.90;;;;;;5037780;28;20049;-78
2022/11/11 15:29:09;;;;;;;1.77;1.58;;;11.20;99.90;;;;;;5045406;28;20052;-77
2022/11/11 15:32:08;;;;;;;4.55;2.65;;;11.20;99.90;;;;;;5043774;28;20080;-79
2022/11/11 15:35:02;;;;;;;2.83;1.75;;;11.20;99.90;;;;;;5040178;28;20061;-73
2022/11/11 15:37:54;;;;;;;6.97;2.17;;;11.20;99.90;;;;;;5044022;28;20049;-72
2022/11/11 15:40:47;;;;;;;1.50;1.38;;;11.20;99.90;;;;;;5048620;28;20091;-73
2022/11/11 15:43:38;;;;;;;2.30;1.15;;;11.30;99.90;;;;;;5047199;28;20517;-70
2022/11/11 15:46:30;;;;;;;1.63;1.52;;;11.30;99.90;;;;;;5047396;28;20057;-74
2022/11/11 15:49:38;;;;;;;2.25;1.45;;;11.30;99.90;;;;;;5045969;28;20416;-74
2022/11/11 15:52:30;;;;;;;1.65;1.55;;;11.30;99.90;;;;;;5045309;28;20520;-74
2022/11/11 15:55:24;;;;;;;2.70;1.90;;;11.30;99.90;;;;;;5046974;28;20412;-73
2022/11/11 15:58:17;;;;;;;3.30;1.70;;;11.40;99.90;;;;;;5049203;28;20086;-73
2022/11/11 16:01:07;;;;;;;1.35;1.25;;;11.40;99.90;;;;;;5047977;28;20045;-72
2022/11/11 16:03:53;;;;;;;2.28;1.33;;;11.40;99.90;;;;;;5044200;28;20417;-81
2022/11/11 16:06:40;;;;;;;2.67;1.30;;;11.40;99.90;;;;;;5047707;28;20051;-72
2022/11/11 16:09:30;;;;;;;1.70;1.48;;;11.40;99.90;;;;;;5046813;28;20421;-76
2022/11/11 16:12:22;;;;;;;1.90;1.80;;;11.40;99.90;;;;;;5042350;28;20454;-78